createdAt,value
2019-01-30T00:00:16.204Z,76.03
2019-01-30T00:03:19.559Z,75.07
2019-01-30T00:06:23.013Z,76.78
2019-01-30T00:09:26.404Z,77.35
2019-01-30T00:12:29.760Z,75.26
2019-01-30T00:15:34.099Z,76.32
2019-01-30T00:18:49.893Z,76.70
2019-01-30T00:21:53.263Z,76.11
2019-01-30T00:24:56.639Z,76.32
2019-01-30T00:28:00.003Z,76.09
2019-01-30T00:31:03.378Z,76.16
2019-01-30T00:34:06.742Z,76.50
2019-01-30T00:37:10.139Z,75.72
2019-01-30T00:40:15.836Z,77.01
2019-01-30T00:43:19.486Z,75.91
2019-01-30T00:46:22.855Z,74.90
2019-01-30T00:49:26.226Z,74.61
2019-01-30T00:52:29.598Z,74.94
2019-01-30T00:55:32.995Z,75.24
2019-01-30T00:58:36.353Z,75.04
2019-01-30T01:01:39.725Z,76.87
2019-01-30T01:04:43.093Z,75.85
2019-01-30T01:07:46.903Z,76.88
2019-01-30T01:10:50.264Z,75.16
2019-01-30T01:13:53.643Z,75.54
2019-01-30T01:16:57.013Z,74.47
2019-01-30T01:20:00.690Z,75.44
2019-01-30T01:23:05.480Z,74.69
2019-01-30T01:26:08.832Z,74.54
2019-01-30T01:29:12.278Z,74.82
2019-01-30T01:32:15.659Z,74.63
2019-01-30T01:35:19.185Z,74.66
2019-01-30T01:38:22.558Z,75.23
2019-01-30T01:41:25.932Z,74.95
2019-01-30T01:44:29.312Z,75.10
2019-01-30T01:47:32.696Z,73.62
2019-01-30T01:50:55.412Z,74.65
2019-01-30T01:53:58.790Z,74.45
2019-01-30T01:57:02.157Z,74.34
2019-01-30T02:00:34.952Z,74.46
2019-01-30T02:03:30.125Z,74.17
2019-01-30T02:06:33.505Z,74.38
2019-01-30T02:09:36.884Z,74.54
2019-01-30T02:12:40.328Z,74.53
2019-01-30T02:15:43.701Z,74.64
2019-01-30T02:18:47.079Z,75.42
2019-01-30T02:21:50.443Z,74.53
2019-01-30T02:24:53.839Z,74.21
2019-01-30T02:27:57.386Z,74.35
2019-01-30T02:31:00.769Z,73.96
2019-01-30T02:37:33.398Z,73.64
2019-01-30T02:40:36.795Z,73.91
2019-01-30T02:43:40.165Z,74.20
2019-01-30T02:46:43.555Z,73.30
2019-01-30T02:49:46.919Z,73.75
2019-01-30T02:52:50.296Z,73.61
2019-01-30T02:55:53.692Z,73.73
2019-01-30T02:58:57.306Z,73.36
2019-01-30T03:05:50.969Z,74.50
2019-01-30T03:08:54.320Z,73.78
2019-01-30T03:11:57.705Z,74.08
2019-01-30T03:15:01.078Z,73.65
2019-01-30T03:18:04.525Z,73.94
2019-01-30T03:21:07.899Z,74.87
2019-01-30T03:24:11.266Z,73.78
2019-01-30T03:27:14.638Z,74.40
2019-01-30T03:30:57.919Z,73.91
2019-01-30T03:34:01.300Z,73.71
2019-01-30T03:37:04.738Z,74.35
2019-01-30T03:40:48.218Z,73.94
2019-01-30T03:43:51.590Z,74.86
2019-01-30T03:46:55.054Z,73.86
2019-01-30T03:49:58.445Z,72.81
2019-01-30T03:53:01.814Z,73.25
2019-01-30T03:56:05.257Z,72.42
2019-01-30T03:59:08.630Z,72.86
2019-01-30T04:02:11.989Z,72.32
2019-01-30T04:05:15.436Z,72.94
2019-01-30T04:08:18.821Z,72.87
2019-01-30T04:11:22.175Z,73.44
2019-01-30T04:14:44.899Z,72.83
2019-01-30T04:17:48.337Z,72.88
2019-01-30T04:20:51.711Z,73.34
2019-01-30T04:23:55.100Z,73.05
2019-01-30T04:26:58.467Z,72.90
2019-01-30T04:30:01.839Z,72.71
2019-01-30T04:33:05.277Z,72.35
2019-01-30T04:36:08.750Z,72.83
2019-01-30T04:39:12.183Z,71.65
2019-01-30T04:42:15.543Z,71.93
2019-01-30T04:45:58.856Z,71.58
2019-01-30T04:49:21.569Z,71.47
2019-01-30T04:52:24.948Z,71.81
2019-01-30T04:55:28.319Z,71.76
2019-01-30T04:58:31.694Z,71.19
2019-01-30T05:01:35.070Z,72.27
2019-01-30T05:04:38.510Z,71.96
2019-01-30T05:07:41.956Z,72.14
2019-01-30T05:10:45.334Z,71.46
2019-01-30T05:13:48.709Z,71.82
2019-01-30T05:16:52.094Z,71.63
2019-01-30T05:19:55.453Z,72.20
2019-01-30T05:22:58.838Z,72.16
2019-01-30T05:26:02.289Z,71.58
2019-01-30T05:29:05.724Z,71.41
2019-01-30T05:32:09.108Z,71.26
2019-01-30T05:38:41.777Z,71.85
2019-01-30T05:41:45.147Z,71.19
2019-01-30T05:44:48.510Z,71.20
2019-01-30T05:47:51.896Z,71.32
2019-01-30T05:50:55.271Z,71.36
2019-01-30T05:53:58.676Z,70.85
2019-01-30T05:57:02.057Z,70.56
2019-01-30T06:00:45.330Z,70.34
2019-01-30T06:03:48.708Z,71.34
2019-01-30T06:06:52.100Z,71.59
2019-01-30T06:09:55.468Z,70.83
2019-01-30T06:13:18.182Z,70.94
2019-01-30T06:16:21.597Z,71.42
2019-01-30T06:19:24.932Z,71.25
2019-01-30T06:22:47.720Z,72.81
2019-01-30T06:26:10.446Z,72.59
2019-01-30T06:29:13.832Z,72.32
2019-01-30T06:32:21.901Z,72.93
2019-01-30T06:35:41.648Z,72.88
2019-01-30T06:38:45.033Z,74.75
2019-01-30T06:41:49.309Z,74.83
2019-01-30T06:44:52.689Z,75.23
2019-01-30T06:48:15.440Z,75.85
2019-01-30T06:51:18.815Z,77.01
2019-01-30T06:54:34.727Z,78.30
2019-01-30T06:57:38.171Z,79.24
2019-01-30T07:00:41.547Z,80.18
2019-01-30T07:03:44.976Z,81.56
2019-01-30T07:06:48.360Z,82.15
2019-01-30T07:09:51.732Z,82.01
2019-01-30T07:12:55.170Z,82.41
2019-01-30T07:15:58.546Z,83.56
2019-01-30T07:19:01.922Z,83.52
2019-01-30T07:22:05.281Z,83.03
2019-01-30T07:25:29.447Z,82.15
2019-01-30T07:28:32.814Z,83.29
2019-01-30T07:31:36.196Z,83.60
2019-01-30T07:34:39.590Z,83.03
2019-01-30T07:37:42.954Z,83.30
2019-01-30T07:40:46.341Z,83.22
2019-01-30T07:43:49.705Z,83.81
2019-01-30T07:46:53.086Z,84.51
2019-01-30T07:49:56.467Z,85.08
2019-01-30T07:52:59.901Z,85.61
2019-01-30T07:56:03.481Z,85.81
2019-01-30T07:59:06.942Z,86.34
2019-01-30T08:02:13.814Z,87.04
2019-01-30T08:05:17.268Z,86.99
2019-01-30T08:08:20.634Z,86.57
2019-01-30T08:11:24.019Z,87.51
2019-01-30T08:14:27.404Z,87.54
2019-01-30T08:17:30.817Z,87.31
2019-01-30T08:20:34.188Z,87.39
2019-01-30T08:23:38.540Z,87.40
2019-01-30T08:26:41.961Z,88.05
2019-01-30T08:29:45.661Z,87.87
2019-01-30T08:32:49.511Z,87.53
2019-01-30T08:35:52.881Z,86.58
2019-01-30T08:38:56.251Z,86.17
2019-01-30T08:41:59.635Z,85.85
2019-01-30T08:45:03.271Z,85.14
2019-01-30T08:48:06.648Z,85.32
2019-01-30T08:51:10.086Z,85.63
2019-01-30T08:54:13.457Z,85.82
2019-01-30T08:57:17.089Z,85.29
2019-01-30T09:00:25.700Z,85.41
2019-01-30T09:03:29.193Z,85.14
2019-01-30T09:06:32.540Z,85.19
2019-01-30T09:09:35.911Z,85.15
2019-01-30T09:12:39.348Z,85.47
2019-01-30T09:15:42.731Z,84.58
2019-01-30T09:18:46.107Z,84.90
2019-01-30T09:21:49.475Z,84.53
2019-01-30T09:24:52.858Z,85.29
2019-01-30T09:27:56.264Z,83.30
2019-01-30T09:30:59.615Z,83.88
2019-01-30T09:34:02.998Z,83.71
2019-01-30T09:37:06.395Z,83.83
2019-01-30T09:40:12.920Z,83.95
2019-01-30T09:43:23.233Z,83.71
2019-01-30T09:46:26.610Z,83.28
2019-01-30T09:49:29.983Z,83.90
2019-01-30T09:52:33.353Z,84.38
2019-01-30T09:55:36.739Z,84.20
2019-01-30T09:58:40.115Z,83.31
2019-01-30T10:01:43.555Z,84.04
2019-01-30T10:04:46.872Z,82.97
2019-01-30T10:07:50.238Z,84.04
2019-01-30T10:10:53.620Z,83.82
2019-01-30T10:13:57.002Z,83.22
2019-01-30T10:17:00.357Z,83.65
2019-01-30T10:20:04.905Z,83.33
2019-01-30T10:23:08.356Z,83.17
2019-01-30T10:26:11.738Z,83.14
2019-01-30T10:29:15.124Z,83.42
2019-01-30T10:32:18.503Z,83.72
2019-01-30T10:35:21.950Z,83.97
2019-01-30T10:38:25.363Z,82.54
2019-01-30T10:41:28.725Z,83.35
2019-01-30T10:44:32.212Z,82.98
2019-01-30T10:47:35.627Z,81.46
2019-01-30T10:50:39.044Z,83.04
2019-01-30T10:53:42.434Z,83.94
2019-01-30T10:56:45.818Z,84.77
2019-01-30T10:59:49.187Z,85.49
2019-01-30T11:02:52.620Z,86.28
2019-01-30T11:05:56.296Z,86.66
2019-01-30T11:08:59.659Z,85.60
2019-01-30T11:12:05.073Z,86.42
2019-01-30T11:15:12.095Z,85.40
2019-01-30T11:18:15.531Z,84.27
2019-01-30T11:21:18.908Z,84.21
2019-01-30T11:24:22.266Z,84.91
2019-01-30T11:27:26.609Z,85.70
2019-01-30T11:30:30.006Z,84.87
2019-01-30T11:33:33.369Z,84.49
2019-01-30T11:36:36.748Z,84.82
2019-01-30T11:39:40.198Z,84.46
2019-01-30T11:42:43.740Z,84.45
2019-01-30T11:45:47.359Z,84.18
2019-01-30T11:48:56.380Z,84.71
2019-01-30T11:51:55.874Z,85.60
2019-01-30T11:54:59.557Z,85.73
2019-01-30T11:58:03.021Z,86.35
2019-01-30T12:01:06.377Z,85.18
2019-01-30T12:04:17.729Z,85.38
2019-01-30T12:07:15.887Z,85.40
2019-01-30T12:10:19.265Z,85.81
2019-01-30T12:13:22.754Z,85.71
2019-01-30T12:16:26.107Z,87.67
2019-01-30T12:19:29.487Z,87.55
2019-01-30T12:22:32.874Z,87.11
2019-01-30T12:25:36.301Z,87.61
2019-01-30T12:28:40.648Z,88.76
2019-01-30T12:31:44.031Z,89.42
2019-01-30T12:34:47.402Z,88.78
2019-01-30T12:37:50.857Z,88.56
2019-01-30T12:40:54.221Z,88.33
2019-01-30T12:43:57.596Z,88.25
2019-01-30T12:47:01.976Z,88.38
2019-01-30T12:50:08.220Z,87.50
2019-01-30T12:53:11.707Z,88.19
2019-01-30T12:56:15.090Z,86.90
2019-01-30T12:59:18.488Z,87.77
2019-01-30T13:02:28.001Z,88.31
2019-01-30T13:05:31.613Z,89.44
2019-01-30T13:08:41.948Z,88.48
2019-01-30T13:11:45.365Z,88.66
2019-01-30T13:14:48.739Z,90.22
2019-01-30T13:17:59.553Z,89.71
2019-01-30T13:21:02.917Z,89.52
2019-01-30T13:24:06.650Z,89.97
2019-01-30T13:27:10.257Z,90.69
2019-01-30T13:30:19.925Z,88.42
2019-01-30T13:33:23.324Z,88.99
2019-01-30T13:36:26.696Z,90.50
2019-01-30T13:39:35.100Z,90.35
2019-01-30T13:42:38.474Z,89.90
2019-01-30T13:45:41.863Z,89.72
2019-01-30T13:48:45.263Z,90.07
2019-01-30T13:51:48.641Z,89.57
2019-01-30T13:54:52.087Z,90.07
2019-01-30T13:57:55.546Z,89.20
2019-01-30T14:00:58.937Z,88.66
2019-01-30T14:04:02.414Z,90.42
2019-01-30T14:07:05.802Z,90.02
2019-01-30T14:10:28.831Z,91.18
2019-01-30T14:13:32.203Z,90.04
2019-01-30T14:16:35.614Z,90.47
2019-01-30T14:19:38.972Z,90.87
2019-01-30T14:22:42.350Z,91.62
2019-01-30T14:26:05.061Z,91.20
2019-01-30T14:29:08.431Z,91.57
2019-01-30T14:32:11.811Z,90.89
2019-01-30T14:35:15.197Z,91.21
2019-01-30T14:38:18.565Z,90.88
2019-01-30T14:41:22.078Z,90.55
2019-01-30T14:44:25.710Z,90.66
2019-01-30T14:47:29.078Z,89.57
2019-01-30T14:50:32.528Z,90.58
2019-01-30T14:53:35.932Z,91.56
2019-01-30T14:56:58.644Z,91.03
2019-01-30T15:00:02.107Z,90.91
2019-01-30T15:03:47.448Z,90.71
2019-01-30T15:06:50.692Z,91.65
2019-01-30T15:09:54.070Z,90.79
2019-01-30T15:12:57.606Z,90.83
2019-01-30T15:16:00.985Z,90.12
2019-01-30T15:22:33.740Z,91.41
2019-01-30T15:25:37.105Z,90.67
2019-01-30T15:28:40.486Z,90.50
2019-01-30T15:31:43.854Z,91.17
2019-01-30T15:34:47.321Z,91.64
2019-01-30T15:37:50.715Z,91.33
2019-01-30T15:41:13.422Z,91.10
2019-01-30T15:44:16.807Z,91.49
2019-01-30T15:47:20.176Z,91.50
2019-01-30T15:51:03.467Z,91.81
2019-01-30T15:54:26.185Z,91.89
2019-01-30T15:57:29.562Z,92.21
2019-01-30T16:01:12.847Z,91.22
2019-01-30T16:04:17.550Z,91.51
2019-01-30T16:07:21.384Z,91.48
2019-01-30T16:10:24.905Z,90.51
2019-01-30T16:13:28.322Z,92.07
2019-01-30T16:16:31.683Z,91.96
2019-01-30T16:19:35.060Z,91.80
2019-01-30T16:22:38.432Z,91.78
2019-01-30T16:25:41.810Z,93.33
2019-01-30T16:28:45.230Z,92.93
2019-01-30T16:31:48.596Z,92.79
2019-01-30T16:34:51.985Z,92.56
2019-01-30T16:37:55.427Z,93.00
2019-01-30T16:40:58.806Z,92.18
2019-01-30T16:44:02.181Z,92.58
2019-01-30T16:47:05.634Z,92.24
2019-01-30T16:50:48.924Z,92.60
2019-01-30T16:53:52.301Z,92.00
2019-01-30T16:56:55.678Z,90.55
2019-01-30T16:59:59.066Z,91.32
2019-01-30T17:03:42.345Z,91.33
2019-01-30T17:06:45.744Z,91.04
2019-01-30T17:10:09.610Z,91.95
2019-01-30T17:13:12.995Z,92.20
2019-01-30T17:16:16.366Z,92.06
2019-01-30T17:19:19.732Z,92.67
2019-01-30T17:22:23.191Z,92.21
2019-01-30T17:25:26.799Z,92.01
2019-01-30T17:28:30.187Z,92.05
2019-01-30T17:31:33.567Z,92.78
2019-01-30T17:34:36.935Z,92.01
2019-01-30T17:37:40.592Z,91.66
2019-01-30T17:41:23.888Z,91.91
2019-01-30T17:44:27.264Z,91.99
2019-01-30T17:47:30.629Z,93.39
2019-01-30T17:50:34.009Z,92.75
2019-01-30T17:53:37.387Z,93.78
2019-01-30T17:56:40.771Z,93.40
2019-01-30T17:59:44.141Z,93.86
2019-01-30T18:02:47.527Z,93.74
2019-01-30T18:05:50.976Z,94.82
2019-01-30T18:08:54.354Z,97.01
2019-01-30T18:11:57.751Z,95.33
2019-01-30T18:15:01.131Z,93.24
2019-01-30T18:18:44.661Z,93.23
2019-01-30T18:21:48.043Z,93.28
2019-01-30T18:24:51.427Z,93.52
2019-01-30T18:27:55.088Z,94.55
2019-01-30T18:30:58.538Z,94.55
2019-01-30T18:34:01.937Z,94.26
2019-01-30T18:37:05.455Z,94.60
2019-01-30T18:40:48.788Z,95.17
2019-01-30T18:43:52.172Z,96.31
2019-01-30T18:46:55.561Z,95.88
2019-01-30T18:49:58.938Z,95.71
2019-01-30T18:53:02.314Z,95.85
2019-01-30T18:56:05.760Z,96.93
2019-01-30T18:59:09.162Z,97.17
2019-01-30T19:02:12.533Z,97.35
2019-01-30T19:05:55.824Z,97.15
2019-01-30T19:08:59.213Z,96.72
2019-01-30T19:12:02.603Z,96.25
2019-01-30T19:15:26.761Z,96.48
2019-01-30T19:18:37.823Z,96.89
2019-01-30T19:21:41.211Z,97.46
2019-01-30T19:24:44.587Z,97.56
2019-01-30T19:27:48.317Z,97.63
2019-01-30T19:30:51.694Z,97.67
2019-01-30T19:33:55.087Z,98.28
2019-01-30T19:37:17.886Z,99.01
2019-01-30T19:40:21.327Z,99.30
2019-01-30T19:43:25.010Z,99.22
2019-01-30T19:46:28.355Z,98.38
2019-01-30T19:49:31.739Z,98.84
2019-01-30T19:52:35.112Z,97.64
2019-01-30T19:55:38.477Z,97.27
2019-01-30T19:58:41.850Z,97.30
2019-01-30T20:01:45.213Z,96.60
2019-01-30T20:04:48.595Z,95.52
2019-01-30T20:07:52.036Z,94.63
2019-01-30T20:10:55.409Z,94.52
2019-01-30T20:13:59.200Z,93.82
2019-01-30T20:17:10.353Z,92.08
2019-01-30T20:20:16.329Z,92.40
2019-01-30T20:23:31.241Z,92.96
2019-01-30T20:26:34.611Z,92.63
2019-01-30T20:29:37.979Z,92.60
2019-01-30T20:32:53.362Z,91.82
2019-01-30T20:35:56.715Z,91.67
2019-01-30T20:39:00.086Z,91.36
2019-01-30T20:42:03.462Z,92.33
2019-01-30T20:45:10.271Z,91.12
2019-01-30T20:48:19.701Z,91.27
2019-01-30T20:51:23.078Z,90.49
2019-01-30T20:54:26.461Z,90.99
2019-01-30T20:57:29.828Z,90.31
2019-01-30T21:00:35.732Z,90.30
2019-01-30T21:03:39.112Z,91.45
2019-01-30T21:06:42.479Z,91.07
2019-01-30T21:09:45.863Z,92.12
2019-01-30T21:12:49.556Z,91.82
2019-01-30T21:15:52.919Z,91.37
2019-01-30T21:18:56.527Z,90.54
2019-01-30T21:21:59.891Z,89.69
2019-01-30T21:25:03.927Z,88.46
2019-01-30T21:28:07.375Z,89.27
2019-01-30T21:31:10.777Z,90.19
2019-01-30T21:34:14.123Z,90.92
2019-01-30T21:37:20.473Z,91.59
2019-01-30T21:40:22.672Z,91.51
2019-01-30T21:43:26.189Z,91.79
2019-01-30T21:46:29.485Z,91.98
2019-01-30T21:49:32.931Z,91.00
2019-01-30T21:52:36.309Z,91.24
2019-01-30T21:55:39.692Z,91.34
2019-01-30T21:58:43.068Z,90.60
2019-01-30T22:01:46.444Z,90.06
2019-01-30T22:04:49.830Z,91.02
2019-01-30T22:08:00.575Z,92.61
2019-01-30T22:10:58.326Z,92.72
2019-01-30T22:14:01.707Z,93.56
2019-01-30T22:17:05.146Z,93.26
2019-01-30T22:20:20.291Z,92.51
2019-01-30T22:23:23.672Z,92.26
2019-01-30T22:26:27.035Z,91.63
2019-01-30T22:29:33.575Z,91.75
2019-01-30T22:32:36.937Z,91.86
2019-01-30T22:35:40.327Z,92.11
2019-01-30T22:38:43.700Z,91.66
2019-01-30T22:41:47.068Z,91.93
2019-01-30T22:44:50.443Z,91.53
2019-01-30T22:47:53.814Z,91.59
2019-01-30T22:50:57.189Z,92.10
2019-01-30T22:54:00.572Z,92.11
2019-01-30T22:57:03.942Z,91.51
2019-01-30T23:00:57.704Z,92.13
2019-01-30T23:04:04.154Z,92.14
2019-01-30T23:07:16.228Z,91.75
2019-01-30T23:10:25.324Z,92.20
2019-01-30T23:13:34.514Z,91.75
2019-01-30T23:16:52.701Z,91.18
2019-01-30T23:19:59.180Z,91.69
2019-01-30T23:23:11.563Z,92.00
2019-01-30T23:26:20.995Z,91.81
2019-01-30T23:29:27.425Z,91.94
2019-01-30T23:32:51.907Z,91.36
2019-01-30T23:36:10.257Z,92.09
2019-01-30T23:39:37.830Z,91.60
2019-01-30T23:42:52.958Z,92.60
2019-01-30T23:46:17.059Z,91.56
2019-01-30T23:49:41.541Z,91.59
2019-01-30T23:53:04.498Z,93.42
2019-01-30T23:56:13.870Z,92.67
2019-01-30T23:59:26.217Z,93.61
